sensor_id;sensor_type;location;lat;lon;timestamp;pressure;altitude;pressure_sealevel;temperature;humidity
47080;BME280;33067;49.296;14.470;2023-08-24T00:00:00;97204.53;;;24.82;37.88
47080;BME280;33067;49.296;14.470;2023-08-24T00:02:25;97204.40;;;24.88;38.24
47080;BME280;33067;49.296;14.470;2023-08-24T00:04:51;97202.15;;;25.48;37.20
47080;BME280;33067;49.296;14.470;2023-08-24T00:07:15;97200.46;;;25.17;37.91
47080;BME280;33067;49.296;14.470;2023-08-24T00:09:41;97201.42;;;24.88;38.37
47080;BME280;33067;49.296;14.470;2023-08-24T00:12:07;97203.79;;;24.80;38.73
47080;BME280;33067;49.296;14.470;2023-08-24T00:14:32;97203.80;;;24.50;38.66
47080;BME280;33067;49.296;14.470;2023-08-24T00:16:57;97200.48;;;24.58;38.62
47080;BME280;33067;49.296;14.470;2023-08-24T00:19:23;97199.09;;;24.83;38.07
47080;BME280;33067;49.296;14.470;2023-08-24T00:21:48;97192.34;;;24.98;37.89
47080;BME280;33067;49.296;14.470;2023-08-24T00:24:13;97193.58;;;25.04;38.22
47080;BME280;33067;49.296;14.470;2023-08-24T00:26:39;97195.23;;;24.89;38.40
47080;BME280;33067;49.296;14.470;2023-08-24T00:29:04;97194.24;;;25.29;38.34
47080;BME280;33067;49.296;14.470;2023-08-24T00:31:30;97193.55;;;24.96;38.36
47080;BME280;33067;49.296;14.470;2023-08-24T00:33:55;97194.38;;;25.13;38.21
47080;BME280;33067;49.296;14.470;2023-08-24T00:36:21;97197.24;;;24.88;38.92
47080;BME280;33067;49.296;14.470;2023-08-24T00:38:47;97199.30;;;25.30;38.39
47080;BME280;33067;49.296;14.470;2023-08-24T00:41:12;97202.94;;;25.10;38.65
47080;BME280;33067;49.296;14.470;2023-08-24T00:43:38;97201.85;;;25.32;38.15
47080;BME280;33067;49.296;14.470;2023-08-24T00:46:03;97202.23;;;25.18;38.09
47080;BME280;33067;49.296;14.470;2023-08-24T00:48:31;97201.51;;;25.36;37.97
47080;BME280;33067;49.296;14.470;2023-08-24T00:50:54;97200.54;;;24.79;37.67
47080;BME280;33067;49.296;14.470;2023-08-24T00:53:19;97204.12;;;24.79;38.12
47080;BME280;33067;49.296;14.470;2023-08-24T00:55:45;97201.68;;;24.78;38.20
47080;BME280;33067;49.296;14.470;2023-08-24T00:58:10;97200.55;;;24.73;38.38
47080;BME280;33067;49.296;14.470;2023-08-24T01:00:36;97203.41;;;24.92;38.74
47080;BME280;33067;49.296;14.470;2023-08-24T01:03:01;97203.72;;;24.58;38.59
47080;BME280;33067;49.296;14.470;2023-08-24T01:05:27;97203.80;;;24.31;39.03
47080;BME280;33067;49.296;14.470;2023-08-24T01:07:53;97205.82;;;24.12;39.30
47080;BME280;33067;49.296;14.470;2023-08-24T01:10:18;97206.89;;;24.25;39.13
47080;BME280;33067;49.296;14.470;2023-08-24T01:12:54;97210.49;;;24.29;39.21
47080;BME280;33067;49.296;14.470;2023-08-24T01:15:12;97208.89;;;24.28;39.07
47080;BME280;33067;49.296;14.470;2023-08-24T01:17:35;97208.07;;;24.48;39.21
47080;BME280;33067;49.296;14.470;2023-08-24T01:20:01;97209.53;;;24.54;39.13
47080;BME280;33067;49.296;14.470;2023-08-24T01:22:33;97208.16;;;24.47;39.22
47080;BME280;33067;49.296;14.470;2023-08-24T01:24:58;97211.26;;;24.25;39.03
47080;BME280;33067;49.296;14.470;2023-08-24T01:27:17;97209.40;;;24.18;39.53
47080;BME280;33067;49.296;14.470;2023-08-24T01:29:42;97212.59;;;24.20;39.39
47080;BME280;33067;49.296;14.470;2023-08-24T01:32:10;97211.99;;;23.89;39.80
47080;BME280;33067;49.296;14.470;2023-08-24T01:34:33;97211.45;;;23.85;39.73
47080;BME280;33067;49.296;14.470;2023-08-24T01:36:58;97208.49;;;23.89;40.03
47080;BME280;33067;49.296;14.470;2023-08-24T01:39:30;97208.03;;;23.62;40.46
47080;BME280;33067;49.296;14.470;2023-08-24T01:41:50;97210.17;;;23.95;39.97
47080;BME280;33067;49.296;14.470;2023-08-24T01:44:17;97208.92;;;24.02;39.73
47080;BME280;33067;49.296;14.470;2023-08-24T01:46:41;97212.06;;;23.53;40.42
47080;BME280;33067;49.296;14.470;2023-08-24T01:49:05;97210.85;;;23.35;40.32
47080;BME280;33067;49.296;14.470;2023-08-24T01:51:31;97209.51;;;23.70;40.06
47080;BME280;33067;49.296;14.470;2023-08-24T01:53:56;97207.70;;;23.80;39.89
47080;BME280;33067;49.296;14.470;2023-08-24T01:56:21;97207.84;;;23.91;39.78
47080;BME280;33067;49.296;14.470;2023-08-24T01:58:46;97204.99;;;23.99;39.53
47080;BME280;33067;49.296;14.470;2023-08-24T02:01:12;97202.30;;;23.73;39.95
47080;BME280;33067;49.296;14.470;2023-08-24T02:03:38;97199.56;;;23.93;39.66
47080;BME280;33067;49.296;14.470;2023-08-24T02:06:02;97190.94;;;23.82;39.39
47080;BME280;33067;49.296;14.470;2023-08-24T02:08:28;97185.91;;;23.98;39.43
47080;BME280;33067;49.296;14.470;2023-08-24T02:13:00;97183.93;;;23.96;39.72
47080;BME280;33067;49.296;14.470;2023-08-24T02:15:26;97183.30;;;23.65;40.13
47080;BME280;33067;49.296;14.470;2023-08-24T02:17:52;97184.89;;;23.50;40.33
47080;BME280;33067;49.296;14.470;2023-08-24T02:20:18;97181.81;;;23.00;41.16
47080;BME280;33067;49.296;14.470;2023-08-24T02:22:43;97182.15;;;22.85;41.42
47080;BME280;33067;49.296;14.470;2023-08-24T02:25:09;97183.51;;;22.87;41.20
47080;BME280;33067;49.296;14.470;2023-08-24T02:27:35;97184.82;;;23.60;40.45
47080;BME280;33067;49.296;14.470;2023-08-24T02:29:59;97186.02;;;23.63;40.48
47080;BME280;33067;49.296;14.470;2023-08-24T02:32:24;97183.96;;;23.61;40.43
47080;BME280;33067;49.296;14.470;2023-08-24T02:34:49;97180.26;;;23.88;40.19
47080;BME280;33067;49.296;14.470;2023-08-24T02:37:15;97175.68;;;23.57;40.00
47080;BME280;33067;49.296;14.470;2023-08-24T02:39:40;97168.05;;;22.72;40.96
47080;BME280;33067;49.296;14.470;2023-08-24T02:42:06;97166.58;;;22.95;40.56
47080;BME280;33067;49.296;14.470;2023-08-24T02:44:31;97168.28;;;23.02;40.66
47080;BME280;33067;49.296;14.470;2023-08-24T02:46:57;97170.01;;;23.39;40.49
47080;BME280;33067;49.296;14.470;2023-08-24T02:49:22;97169.59;;;23.37;40.50
47080;BME280;33067;49.296;14.470;2023-08-24T02:51:48;97169.09;;;23.37;40.23
47080;BME280;33067;49.296;14.470;2023-08-24T02:54:13;97169.80;;;23.31;40.27
47080;BME280;33067;49.296;14.470;2023-08-24T02:56:39;97170.43;;;23.37;40.17
47080;BME280;33067;49.296;14.470;2023-08-24T02:59:04;97173.94;;;23.70;39.94
47080;BME280;33067;49.296;14.470;2023-08-24T03:01:30;97177.25;;;23.54;39.98
47080;BME280;33067;49.296;14.470;2023-08-24T03:03:55;97177.95;;;23.30;38.99
47080;BME280;33067;49.296;14.470;2023-08-24T03:06:22;97175.41;;;22.93;39.21
47080;BME280;33067;49.296;14.470;2023-08-24T03:08:46;97177.14;;;22.97;38.85
47080;BME280;33067;49.296;14.470;2023-08-24T03:11:12;97179.31;;;22.76;39.62
47080;BME280;33067;49.296;14.470;2023-08-24T03:13:38;97178.14;;;22.56;39.45
47080;BME280;33067;49.296;14.470;2023-08-24T03:16:04;97176.09;;;22.70;39.43
47080;BME280;33067;49.296;14.470;2023-08-24T03:18:29;97177.47;;;22.90;39.21
47080;BME280;33067;49.296;14.470;2023-08-24T03:20:55;97178.00;;;23.14;39.20
47080;BME280;33067;49.296;14.470;2023-08-24T03:23:20;97180.35;;;23.04;39.60
47080;BME280;33067;49.296;14.470;2023-08-24T03:25:45;97183.34;;;22.68;39.85
47080;BME280;33067;49.296;14.470;2023-08-24T03:28:11;97184.39;;;22.73;39.74
47080;BME280;33067;49.296;14.470;2023-08-24T03:30:37;97180.25;;;22.76;39.99
47080;BME280;33067;49.296;14.470;2023-08-24T03:33:01;97177.08;;;22.60;40.40
47080;BME280;33067;49.296;14.470;2023-08-24T03:35:28;97177.49;;;22.38;40.29
47080;BME280;33067;49.296;14.470;2023-08-24T03:37:52;97178.14;;;22.81;40.08
47080;BME280;33067;49.296;14.470;2023-08-24T03:40:18;97179.96;;;22.65;40.00
47080;BME280;33067;49.296;14.470;2023-08-24T03:42:43;97180.43;;;22.76;40.26
47080;BME280;33067;49.296;14.470;2023-08-24T03:45:09;97182.29;;;22.32;40.50
47080;BME280;33067;49.296;14.470;2023-08-24T03:47:34;97178.94;;;22.39;40.37
47080;BME280;33067;49.296;14.470;2023-08-24T03:49:59;97179.74;;;22.58;40.10
47080;BME280;33067;49.296;14.470;2023-08-24T03:52:24;97181.48;;;23.08;39.69
47080;BME280;33067;49.296;14.470;2023-08-24T03:54:50;97184.12;;;23.00;39.80
47080;BME280;33067;49.296;14.470;2023-08-24T03:57:15;97184.73;;;22.69;40.21
47080;BME280;33067;49.296;14.470;2023-08-24T03:59:41;97185.13;;;22.66;40.28
47080;BME280;33067;49.296;14.470;2023-08-24T04:02:06;97184.25;;;22.63;40.22
47080;BME280;33067;49.296;14.470;2023-08-24T04:04:31;97187.90;;;22.75;40.07
47080;BME280;33067;49.296;14.470;2023-08-24T04:06:56;97188.95;;;22.68;40.07
47080;BME280;33067;49.296;14.470;2023-08-24T04:09:22;97192.37;;;22.40;39.93
47080;BME280;33067;49.296;14.470;2023-08-24T04:11:47;97197.07;;;22.46;40.43
47080;BME280;33067;49.296;14.470;2023-08-24T04:14:12;97201.76;;;22.29;40.30
47080;BME280;33067;49.296;14.470;2023-08-24T04:16:38;97202.41;;;22.08;40.43
47080;BME280;33067;49.296;14.470;2023-08-24T04:19:03;97204.37;;;22.27;39.86
47080;BME280;33067;49.296;14.470;2023-08-24T04:21:28;97204.00;;;22.52;39.89
47080;BME280;33067;49.296;14.470;2023-08-24T04:23:53;97207.56;;;22.20;40.15
47080;BME280;33067;49.296;14.470;2023-08-24T04:26:19;97209.47;;;22.39;39.85
47080;BME280;33067;49.296;14.470;2023-08-24T04:28:44;97207.29;;;22.18;40.13
47080;BME280;33067;49.296;14.470;2023-08-24T04:31:09;97208.82;;;21.79;40.73
47080;BME280;33067;49.296;14.470;2023-08-24T04:33:34;97212.78;;;22.38;40.43
47080;BME280;33067;49.296;14.470;2023-08-24T04:36:01;97213.52;;;22.05;40.60
47080;BME280;33067;49.296;14.470;2023-08-24T04:38:24;97214.12;;;22.26;40.42
47080;BME280;33067;49.296;14.470;2023-08-24T04:40:51;97214.18;;;22.39;40.29
47080;BME280;33067;49.296;14.470;2023-08-24T04:43:16;97210.02;;;22.63;40.07
47080;BME280;33067;49.296;14.470;2023-08-24T04:45:41;97211.60;;;22.80;39.93
47080;BME280;33067;49.296;14.470;2023-08-24T04:48:07;97209.76;;;22.97;39.74
47080;BME280;33067;49.296;14.470;2023-08-24T04:50:33;97207.40;;;22.95;39.56
47080;BME280;33067;49.296;14.470;2023-08-24T04:52:58;97208.68;;;22.92;39.64
47080;BME280;33067;49.296;14.470;2023-08-24T04:55:24;97209.88;;;22.78;39.60
47080;BME280;33067;49.296;14.470;2023-08-24T04:57:49;97208.06;;;23.02;39.29
47080;BME280;33067;49.296;14.470;2023-08-24T05:00:15;97210.58;;;23.36;39.16
47080;BME280;33067;49.296;14.470;2023-08-24T05:02:40;97212.51;;;23.24;39.09
47080;BME280;33067;49.296;14.470;2023-08-24T05:05:07;97216.22;;;23.70;38.35
47080;BME280;33067;49.296;14.470;2023-08-24T05:07:31;97215.18;;;23.57;38.51
47080;BME280;33067;49.296;14.470;2023-08-24T05:09:57;97210.58;;;23.51;38.78
47080;BME280;33067;49.296;14.470;2023-08-24T05:12:22;97211.46;;;23.61;38.69
47080;BME280;33067;49.296;14.470;2023-08-24T05:14:48;97213.26;;;23.62;38.53
47080;BME280;33067;49.296;14.470;2023-08-24T05:17:13;97220.05;;;23.84;38.35
47080;BME280;33067;49.296;14.470;2023-08-24T05:19:39;97215.38;;;24.05;37.24
47080;BME280;33067;49.296;14.470;2023-08-24T05:22:04;97215.78;;;24.31;36.60
47080;BME280;33067;49.296;14.470;2023-08-24T05:24:30;97215.48;;;24.49;36.57
47080;BME280;33067;49.296;14.470;2023-08-24T05:26:55;97209.03;;;24.89;35.93
47080;BME280;33067;49.296;14.470;2023-08-24T05:29:20;97210.67;;;24.85;35.88
47080;BME280;33067;49.296;14.470;2023-08-24T05:31:46;97211.71;;;24.90;35.86
47080;BME280;33067;49.296;14.470;2023-08-24T05:34:12;97212.61;;;25.04;35.66
47080;BME280;33067;49.296;14.470;2023-08-24T05:36:38;97213.29;;;25.32;35.19
47080;BME280;33067;49.296;14.470;2023-08-24T05:39:02;97217.69;;;25.13;35.68
47080;BME280;33067;49.296;14.470;2023-08-24T05:41:29;97218.48;;;25.37;35.71
47080;BME280;33067;49.296;14.470;2023-08-24T05:43:54;97214.52;;;25.64;35.38
47080;BME280;33067;49.296;14.470;2023-08-24T05:46:20;97211.58;;;25.65;35.26
47080;BME280;33067;49.296;14.470;2023-08-24T05:48:45;97213.75;;;25.34;35.16
47080;BME280;33067;49.296;14.470;2023-08-24T05:51:11;97214.26;;;25.81;34.98
47080;BME280;33067;49.296;14.470;2023-08-24T05:53:37;97216.13;;;25.96;34.96
47080;BME280;33067;49.296;14.470;2023-08-24T05:56:02;97219.90;;;26.35;33.99
47080;BME280;33067;49.296;14.470;2023-08-24T05:58:28;97224.19;;;26.27;34.15
47080;BME280;33067;49.296;14.470;2023-08-24T06:00:58;97224.08;;;26.33;34.34
47080;BME280;33067;49.296;14.470;2023-08-24T06:03:18;97224.34;;;26.21;34.30
47080;BME280;33067;49.296;14.470;2023-08-24T06:05:44;97223.37;;;26.47;33.94
47080;BME280;33067;49.296;14.470;2023-08-24T06:08:09;97225.13;;;26.07;34.71
47080;BME280;33067;49.296;14.470;2023-08-24T06:10:34;97226.42;;;26.30;34.63
47080;BME280;33067;49.296;14.470;2023-08-24T06:13:00;97228.44;;;26.08;34.54
47080;BME280;33067;49.296;14.470;2023-08-24T06:15:26;97226.92;;;26.16;34.92
47080;BME280;33067;49.296;14.470;2023-08-24T06:17:52;97223.62;;;26.66;34.34
47080;BME280;33067;49.296;14.470;2023-08-24T06:20:18;97221.28;;;26.77;33.61
47080;BME280;33067;49.296;14.470;2023-08-24T06:22:43;97219.41;;;26.89;33.64
47080;BME280;33067;49.296;14.470;2023-08-24T06:25:09;97214.66;;;26.98;33.59
47080;BME280;33067;49.296;14.470;2023-08-24T06:27:34;97213.17;;;27.43;32.98
47080;BME280;33067;49.296;14.470;2023-08-24T06:30:00;97213.54;;;27.64;32.94
47080;BME280;33067;49.296;14.470;2023-08-24T06:32:25;97211.95;;;27.97;32.10
47080;BME280;33067;49.296;14.470;2023-08-24T06:34:51;97209.10;;;28.11;32.03
47080;BME280;33067;49.296;14.470;2023-08-24T06:37:15;97209.45;;;28.11;31.93
47080;BME280;33067;49.296;14.470;2023-08-24T06:39:41;97208.32;;;28.37;31.75
47080;BME280;33067;49.296;14.470;2023-08-24T06:42:06;97205.21;;;28.70;31.20
47080;BME280;33067;49.296;14.470;2023-08-24T06:44:32;97208.70;;;28.89;30.83
47080;BME280;33067;49.296;14.470;2023-08-24T06:46:58;97209.99;;;28.95;30.85
47080;BME280;33067;49.296;14.470;2023-08-24T06:49:23;97206.70;;;28.78;31.04
47080;BME280;33067;49.296;14.470;2023-08-24T06:51:48;97205.04;;;28.74;30.66
47080;BME280;33067;49.296;14.470;2023-08-24T06:54:13;97207.50;;;29.26;30.34
47080;BME280;33067;49.296;14.470;2023-08-24T06:56:38;97208.07;;;29.01;30.41
47080;BME280;33067;49.296;14.470;2023-08-24T06:59:04;97205.49;;;29.25;29.85
47080;BME280;33067;49.296;14.470;2023-08-24T07:01:30;97209.04;;;29.15;30.11
47080;BME280;33067;49.296;14.470;2023-08-24T07:03:55;97203.84;;;29.24;30.04
47080;BME280;33067;49.296;14.470;2023-08-24T07:06:20;97199.48;;;30.01;29.87
47080;BME280;33067;49.296;14.470;2023-08-24T07:08:46;97197.68;;;29.82;29.24
47080;BME280;33067;49.296;14.470;2023-08-24T07:11:11;97203.76;;;28.98;30.37
47080;BME280;33067;49.296;14.470;2023-08-24T07:13:37;97199.38;;;30.08;28.77
47080;BME280;33067;49.296;14.470;2023-08-24T07:16:03;97201.18;;;29.68;29.97
47080;BME280;33067;49.296;14.470;2023-08-24T07:18:28;97199.85;;;30.13;29.07
47080;BME280;33067;49.296;14.470;2023-08-24T07:20:54;97195.41;;;30.30;29.12
47080;BME280;33067;49.296;14.470;2023-08-24T07:23:18;97195.09;;;30.28;29.38
47080;BME280;33067;49.296;14.470;2023-08-24T07:25:44;97197.77;;;30.52;28.53
47080;BME280;33067;49.296;14.470;2023-08-24T07:28:10;97197.25;;;30.79;28.42
47080;BME280;33067;49.296;14.470;2023-08-24T07:30:36;97195.42;;;30.83;28.02
47080;BME280;33067;49.296;14.470;2023-08-24T07:33:00;97193.52;;;30.85;28.14
47080;BME280;33067;49.296;14.470;2023-08-24T07:35:26;97190.40;;;31.21;28.01
47080;BME280;33067;49.296;14.470;2023-08-24T07:37:52;97188.43;;;31.05;27.83
47080;BME280;33067;49.296;14.470;2023-08-24T07:40:17;97189.12;;;30.79;28.16
47080;BME280;33067;49.296;14.470;2023-08-24T07:42:44;97189.39;;;31.01;27.97
47080;BME280;33067;49.296;14.470;2023-08-24T07:45:08;97193.53;;;31.10;27.55
47080;BME280;33067;49.296;14.470;2023-08-24T07:47:33;97190.43;;;30.74;28.14
47080;BME280;33067;49.296;14.470;2023-08-24T07:49:58;97189.22;;;31.44;27.74
47080;BME280;33067;49.296;14.470;2023-08-24T07:52:23;97188.00;;;31.43;27.57
47080;BME280;33067;49.296;14.470;2023-08-24T07:54:49;97186.80;;;31.49;27.43
47080;BME280;33067;49.296;14.470;2023-08-24T07:57:15;97181.13;;;31.65;27.26
47080;BME280;33067;49.296;14.470;2023-08-24T07:59:40;97177.69;;;31.68;26.91
47080;BME280;33067;49.296;14.470;2023-08-24T08:02:06;97179.81;;;31.36;27.26
47080;BME280;33067;49.296;14.470;2023-08-24T08:04:31;97179.43;;;30.83;27.11
47080;BME280;33067;49.296;14.470;2023-08-24T08:06:56;97180.04;;;31.38;27.00
47080;BME280;33067;49.296;14.470;2023-08-24T08:09:22;97179.46;;;31.26;27.09
47080;BME280;33067;49.296;14.470;2023-08-24T08:11:47;97174.17;;;31.76;27.24
47080;BME280;33067;49.296;14.470;2023-08-24T08:14:13;97172.89;;;31.69;26.85
47080;BME280;33067;49.296;14.470;2023-08-24T08:16:38;97169.03;;;32.13;26.62
47080;BME280;33067;49.296;14.470;2023-08-24T08:19:03;97168.88;;;32.11;26.46
47080;BME280;33067;49.296;14.470;2023-08-24T08:21:28;97166.49;;;32.32;26.41
47080;BME280;33067;49.296;14.470;2023-08-24T08:23:54;97164.07;;;32.39;25.82
47080;BME280;33067;49.296;14.470;2023-08-24T08:26:19;97162.06;;;31.86;26.55
47080;BME280;33067;49.296;14.470;2023-08-24T08:28:44;97163.94;;;31.70;26.54
47080;BME280;33067;49.296;14.470;2023-08-24T08:31:10;97163.18;;;32.09;26.52
47080;BME280;33067;49.296;14.470;2023-08-24T08:33:36;97161.47;;;32.15;26.75
47080;BME280;33067;49.296;14.470;2023-08-24T08:36:02;97161.03;;;32.45;26.59
47080;BME280;33067;49.296;14.470;2023-08-24T08:38:28;97163.54;;;32.14;27.11
47080;BME280;33067;49.296;14.470;2023-08-24T08:40:55;97168.57;;;32.55;26.69
47080;BME280;33067;49.296;14.470;2023-08-24T08:43:18;97168.92;;;32.94;26.72
47080;BME280;33067;49.296;14.470;2023-08-24T08:45:44;97168.40;;;32.60;26.15
47080;BME280;33067;49.296;14.470;2023-08-24T08:48:11;97162.55;;;32.71;25.79
47080;BME280;33067;49.296;14.470;2023-08-24T08:50:36;97157.49;;;32.48;24.60
47080;BME280;33067;49.296;14.470;2023-08-24T08:53:01;97153.59;;;33.91;24.37
47080;BME280;33067;49.296;14.470;2023-08-24T08:55:26;97151.31;;;33.84;24.51
47080;BME280;33067;49.296;14.470;2023-08-24T08:57:53;97148.13;;;33.87;24.15
47080;BME280;33067;49.296;14.470;2023-08-24T09:00:17;97150.27;;;33.59;24.72
47080;BME280;33067;49.296;14.470;2023-08-24T09:02:44;97144.24;;;33.90;24.23
47080;BME280;33067;49.296;14.470;2023-08-24T09:05:08;97148.29;;;32.67;24.62
47080;BME280;33067;49.296;14.470;2023-08-24T09:07:35;97150.02;;;33.05;24.97
47080;BME280;33067;49.296;14.470;2023-08-24T09:09:59;97150.70;;;33.29;24.86
47080;BME280;33067;49.296;14.470;2023-08-24T09:12:25;97148.92;;;33.48;24.95
47080;BME280;33067;49.296;14.470;2023-08-24T09:14:50;97141.98;;;33.83;24.66
47080;BME280;33067;49.296;14.470;2023-08-24T09:17:20;97135.16;;;33.48;24.86
47080;BME280;33067;49.296;14.470;2023-08-24T09:19:41;97136.05;;;32.84;24.66
47080;BME280;33067;49.296;14.470;2023-08-24T09:22:07;97128.28;;;33.59;24.46
47080;BME280;33067;49.296;14.470;2023-08-24T09:24:33;97125.59;;;34.05;23.47
47080;BME280;33067;49.296;14.470;2023-08-24T09:26:58;97124.57;;;33.70;24.12
47080;BME280;33067;49.296;14.470;2023-08-24T09:29:23;97115.73;;;33.92;23.91
47080;BME280;33067;49.296;14.470;2023-08-24T09:31:50;97112.48;;;33.95;23.76
47080;BME280;33067;49.296;14.470;2023-08-24T09:34:14;97111.74;;;33.35;24.19
47080;BME280;33067;49.296;14.470;2023-08-24T09:36:40;97115.12;;;33.21;24.47
47080;BME280;33067;49.296;14.470;2023-08-24T09:39:05;97119.26;;;32.41;25.42
47080;BME280;33067;49.296;14.470;2023-08-24T09:41:39;97119.41;;;32.79;25.46
47080;BME280;33067;49.296;14.470;2023-08-24T09:44:03;97118.33;;;33.10;24.57
47080;BME280;33067;49.296;14.470;2023-08-24T09:46:25;97114.15;;;32.78;25.03
47080;BME280;33067;49.296;14.470;2023-08-24T09:48:53;97110.97;;;32.98;24.68
47080;BME280;33067;49.296;14.470;2023-08-24T09:51:12;97105.93;;;33.30;24.34
47080;BME280;33067;49.296;14.470;2023-08-24T09:53:39;97107.56;;;33.86;24.61
47080;BME280;33067;49.296;14.470;2023-08-24T09:56:03;97104.75;;;33.65;23.75
47080;BME280;33067;49.296;14.470;2023-08-24T09:58:29;97104.64;;;33.94;23.99
47080;BME280;33067;49.296;14.470;2023-08-24T10:00:55;97105.09;;;34.03;23.79
47080;BME280;33067;49.296;14.470;2023-08-24T10:03:20;97103.48;;;34.08;23.93
47080;BME280;33067;49.296;14.470;2023-08-24T10:05:45;97099.19;;;33.87;23.79
47080;BME280;33067;49.296;14.470;2023-08-24T10:08:10;97091.74;;;34.07;23.21
47080;BME280;33067;49.296;14.470;2023-08-24T10:10:42;97091.83;;;34.14;23.00
47080;BME280;33067;49.296;14.470;2023-08-24T10:13:05;97088.06;;;34.44;22.85
47080;BME280;33067;49.296;14.470;2023-08-24T10:15:26;97087.33;;;34.33;23.53
47080;BME280;33067;49.296;14.470;2023-08-24T10:17:52;97082.58;;;34.57;23.06
47080;BME280;33067;49.296;14.470;2023-08-24T10:20:18;97077.38;;;34.56;22.85
47080;BME280;33067;49.296;14.470;2023-08-24T10:22:42;97066.68;;;34.88;22.72
47080;BME280;33067;49.296;14.470;2023-08-24T10:25:09;97061.48;;;34.78;22.72
47080;BME280;33067;49.296;14.470;2023-08-24T10:27:33;97055.73;;;35.16;21.84
47080;BME280;33067;49.296;14.470;2023-08-24T10:29:58;97050.01;;;34.99;21.27
47080;BME280;33067;49.296;14.470;2023-08-24T10:32:24;97048.25;;;35.36;21.51
47080;BME280;33067;49.296;14.470;2023-08-24T10:34:48;97050.93;;;35.22;21.35
47080;BME280;33067;49.296;14.470;2023-08-24T10:37:14;97052.85;;;35.58;21.13
47080;BME280;33067;49.296;14.470;2023-08-24T10:39:44;97053.04;;;35.35;21.33
47080;BME280;33067;49.296;14.470;2023-08-24T10:42:10;97051.03;;;35.41;21.42
47080;BME280;33067;49.296;14.470;2023-08-24T10:44:35;97045.70;;;35.22;21.03
47080;BME280;33067;49.296;14.470;2023-08-24T10:47:05;97040.22;;;35.57;20.96
47080;BME280;33067;49.296;14.470;2023-08-24T10:49:21;97043.50;;;35.38;20.55
47080;BME280;33067;49.296;14.470;2023-08-24T10:51:46;97043.75;;;35.12;19.86
47080;BME280;33067;49.296;14.470;2023-08-24T10:54:15;97044.16;;;33.47;20.97
47080;BME280;33067;49.296;14.470;2023-08-24T10:56:38;97039.32;;;34.28;21.18
47080;BME280;33067;49.296;14.470;2023-08-24T10:59:13;97043.35;;;34.22;20.62
47080;BME280;33067;49.296;14.470;2023-08-24T11:01:32;97032.56;;;34.52;19.23
47080;BME280;33067;49.296;14.470;2023-08-24T11:03:56;97032.89;;;34.25;19.67
47080;BME280;33067;49.296;14.470;2023-08-24T11:06:20;97025.78;;;34.55;19.71
47080;BME280;33067;49.296;14.470;2023-08-24T11:08:45;97025.80;;;34.49;20.06
47080;BME280;33067;49.296;14.470;2023-08-24T11:11:18;97028.16;;;34.79;19.70
47080;BME280;33067;49.296;14.470;2023-08-24T11:13:35;97026.54;;;35.07;20.18
47080;BME280;33067;49.296;14.470;2023-08-24T11:16:00;97025.65;;;34.42;20.10
47080;BME280;33067;49.296;14.470;2023-08-24T11:18:27;97019.62;;;33.50;19.77
47080;BME280;33067;49.296;14.470;2023-08-24T11:20:52;97015.92;;;34.00;20.25
47080;BME280;33067;49.296;14.470;2023-08-24T11:23:17;97009.15;;;33.32;20.24
47080;BME280;33067;49.296;14.470;2023-08-24T11:25:42;97003.69;;;33.38;20.80
47080;BME280;33067;49.296;14.470;2023-08-24T11:28:07;97003.29;;;33.52;20.67
47080;BME280;33067;49.296;14.470;2023-08-24T11:30:33;97006.58;;;33.49;21.03
47080;BME280;33067;49.296;14.470;2023-08-24T11:32:59;97003.07;;;33.95;20.93
47080;BME280;33067;49.296;14.470;2023-08-24T11:35:24;96995.39;;;34.29;20.10
47080;BME280;33067;49.296;14.470;2023-08-24T11:37:51;96993.87;;;34.43;19.53
47080;BME280;33067;49.296;14.470;2023-08-24T11:40:17;96994.94;;;34.30;18.95
47080;BME280;33067;49.296;14.470;2023-08-24T11:42:40;96994.92;;;34.38;19.47
47080;BME280;33067;49.296;14.470;2023-08-24T11:45:11;96992.29;;;34.27;19.43
47080;BME280;33067;49.296;14.470;2023-08-24T11:47:31;96993.13;;;33.46;20.03
47080;BME280;33067;49.296;14.470;2023-08-24T11:49:57;96991.09;;;34.15;19.75
47080;BME280;33067;49.296;14.470;2023-08-24T11:52:22;96987.47;;;34.36;19.52
47080;BME280;33067;49.296;14.470;2023-08-24T11:54:51;96986.00;;;34.66;19.76
47080;BME280;33067;49.296;14.470;2023-08-24T11:57:13;96976.39;;;34.79;19.54
47080;BME280;33067;49.296;14.470;2023-08-24T11:59:39;96971.31;;;33.96;19.66
47080;BME280;33067;49.296;14.470;2023-08-24T12:02:05;96969.33;;;34.17;19.36
47080;BME280;33067;49.296;14.470;2023-08-24T12:04:37;96968.64;;;34.65;19.04
47080;BME280;33067;49.296;14.470;2023-08-24T12:06:55;96963.75;;;34.81;19.21
47080;BME280;33067;49.296;14.470;2023-08-24T12:09:21;96963.10;;;34.08;19.00
47080;BME280;33067;49.296;14.470;2023-08-24T12:11:46;96954.98;;;34.71;18.85
47080;BME280;33067;49.296;14.470;2023-08-24T12:14:17;96949.74;;;35.00;18.71
47080;BME280;33067;49.296;14.470;2023-08-24T12:16:38;96946.41;;;34.75;18.69
47080;BME280;33067;49.296;14.470;2023-08-24T12:19:07;96948.44;;;34.90;18.53
47080;BME280;33067;49.296;14.470;2023-08-24T12:23:58;96939.14;;;35.02;18.80
47080;BME280;33067;49.296;14.470;2023-08-24T12:26:19;96936.20;;;35.12;18.73
47080;BME280;33067;49.296;14.470;2023-08-24T12:28:49;96928.57;;;34.08;19.60
47080;BME280;33067;49.296;14.470;2023-08-24T12:31:14;96925.13;;;34.41;19.69
47080;BME280;33067;49.296;14.470;2023-08-24T12:33:35;96923.30;;;34.64;19.79
47080;BME280;33067;49.296;14.470;2023-08-24T12:36:00;96923.50;;;34.75;19.94
47080;BME280;33067;49.296;14.470;2023-08-24T12:38:26;96917.64;;;34.95;19.90
47080;BME280;33067;49.296;14.470;2023-08-24T12:40:51;96911.96;;;34.53;19.82
47080;BME280;33067;49.296;14.470;2023-08-24T12:43:16;96908.99;;;34.23;19.84